Time;durP1;ratioP1;P1;durP2;ratioP2;P2;SDS_P1;SDS_P2;PMS_P1;PMS_P2;Temp;Humidity;BMP_temperature;BMP_pressure;BME280_temperature;BME280_humidity;BME280_pressure;Samples;Min_cycle;Max_cycle;Signal;HPM_P1;HPM_P2
2021/06/06 00:00:40;;;;;;;7.27;6.67;;;19.10;99.90;;;;;;5088097;28;20190;-46
2021/06/06 00:03:13;;;;;;;6.53;6.03;;;19.00;99.90;;;;;;5088704;28;20242;-47
2021/06/06 00:05:45;;;;;;;7.00;6.30;;;19.00;99.90;;;;;;5065507;28;20202;-44
2021/06/06 00:08:12;;;;;;;6.60;5.90;;;19.10;99.90;;;;;;5086996;28;20221;-45
2021/06/06 00:10:38;;;;;;;7.20;6.50;;;19.10;99.90;;;;;;5083271;28;20320;-43
2021/06/06 00:13:04;;;;;;;6.43;5.93;;;19.10;99.90;;;;;;5081478;28;20350;-43
2021/06/06 00:15:30;;;;;;;6.50;5.90;;;19.00;99.90;;;;;;5082943;28;20186;-44
2021/06/06 00:17:57;;;;;;;6.27;5.77;;;19.00;99.90;;;;;;5087139;28;20198;-42
2021/06/06 00:20:27;;;;;;;6.00;5.50;;;19.00;99.90;;;;;;5073520;28;20194;-46
2021/06/06 00:22:54;;;;;;;6.50;5.90;;;19.00;99.90;;;;;;5081937;28;20209;-45
2021/06/06 00:25:20;;;;;;;6.13;5.53;;;19.00;99.90;;;;;;5089036;28;20202;-48
2021/06/06 00:27:46;;;;;;;6.80;6.10;;;19.00;99.90;;;;;;5085040;28;20808;-44
2021/06/06 00:30:13;;;;;;;8.00;6.07;;;19.00;99.90;;;;;;5090745;28;20190;-44
2021/06/06 00:32:39;;;;;;;6.40;5.80;;;19.00;99.90;;;;;;5087998;28;20192;-48
2021/06/06 00:35:08;;;;;;;6.70;6.03;;;19.00;99.90;;;;;;5087051;28;20566;-44
2021/06/06 00:37:36;;;;;;;6.97;6.23;;;18.90;99.90;;;;;;5068324;28;20190;-43
2021/06/06 00:40:05;;;;;;;6.73;6.13;;;18.90;99.90;;;;;;5086118;28;20317;-46
2021/06/06 00:42:32;;;;;;;7.10;6.50;;;18.90;99.90;;;;;;5081522;28;20229;-44
2021/06/06 00:45:05;;;;;;;7.00;6.27;;;18.90;99.90;;;;;;5090453;28;20224;-49
2021/06/06 00:47:32;;;;;;;7.47;6.77;;;18.90;99.90;;;;;;5086736;28;20178;-44
2021/06/06 00:50:02;;;;;;;8.80;8.00;;;18.90;99.90;;;;;;5088681;28;20222;-47
2021/06/06 00:52:32;;;;;;;21.43;19.13;;;18.90;99.90;;;;;;5075482;28;20237;-43
2021/06/06 00:55:01;;;;;;;32.47;29.07;;;18.90;99.90;;;;;;5085011;28;20229;-46
2021/06/06 00:57:31;;;;;;;31.80;28.57;;;18.90;99.90;;;;;;5076139;28;20202;-43
2021/06/06 01:00:08;;;;;;;37.23;33.23;;;19.00;99.90;;;;;;5080787;28;20210;-43
2021/06/06 01:02:40;;;;;;;28.67;25.80;;;19.00;99.90;;;;;;5064759;28;20817;-45
2021/06/06 01:05:10;;;;;;;37.77;33.77;;;19.00;99.90;;;;;;5089901;28;20225;-45
2021/06/06 01:07:37;;;;;;;42.37;38.00;;;19.00;99.90;;;;;;5063803;28;20364;-48
2021/06/06 01:10:07;;;;;;;47.17;41.67;;;19.00;99.90;;;;;;5085408;28;20679;-43
2021/06/06 01:12:42;;;;;;;51.03;45.53;;;19.00;99.90;;;;;;5075676;28;20221;-46
2021/06/06 01:15:18;;;;;;;50.33;44.37;;;19.00;99.90;;;;;;5085450;28;20202;-42
2021/06/06 01:17:51;;;;;;;50.37;43.60;;;19.00;99.90;;;;;;5076496;28;20217;-44
2021/06/06 01:20:30;;;;;;;52.00;45.33;;;19.00;99.90;;;;;;5081238;28;20198;-42
2021/06/06 01:23:07;;;;;;;56.73;49.10;;;18.90;99.90;;;;;;5070273;28;20205;-45
2021/06/06 01:25:38;;;;;;;55.27;47.23;;;18.90;99.90;;;;;;5076667;28;20276;-44
2021/06/06 01:28:12;;;;;;;52.33;46.63;;;18.90;99.90;;;;;;5089612;28;20247;-45
2021/06/06 01:30:45;;;;;;;57.87;48.43;;;18.80;99.90;;;;;;5116528;27;20205;-47
2021/06/06 01:33:20;;;;;;;53.23;47.50;;;18.80;99.90;;;;;;5089140;28;20210;-46
2021/06/06 01:35:49;;;;;;;58.17;49.33;;;18.80;99.90;;;;;;5086830;28;20908;-48
2021/06/06 01:38:26;;;;;;;54.23;47.07;;;18.80;99.90;;;;;;5067400;28;20229;-46
2021/06/06 01:40:58;;;;;;;58.83;49.73;;;18.70;99.90;;;;;;5083201;28;20225;-45
2021/06/06 01:43:29;;;;;;;59.03;48.10;;;18.80;99.90;;;;;;5086562;28;20227;-47
2021/06/06 01:46:02;;;;;;;60.77;50.10;;;18.70;99.90;;;;;;5084631;28;20198;-44
2021/06/06 01:48:29;;;;;;;59.80;50.73;;;18.70;99.90;;;;;;5081293;28;20352;-47
2021/06/06 01:50:58;;;;;;;54.83;48.73;;;18.70;99.90;;;;;;5082193;28;20222;-48
2021/06/06 01:53:26;;;;;;;57.07;49.57;;;18.70;99.90;;;;;;5068059;28;20213;-46
2021/06/06 01:55:58;;;;;;;60.27;51.07;;;18.70;99.90;;;;;;5084827;28;20198;-43
2021/06/06 01:58:30;;;;;;;56.10;48.43;;;18.70;99.90;;;;;;5079777;28;20320;-45
2021/06/06 02:01:05;;;;;;;63.93;51.67;;;18.60;99.90;;;;;;5077923;28;20191;-46
2021/06/06 02:03:34;;;;;;;62.83;50.93;;;18.60;99.90;;;;;;5079889;28;20206;-47
2021/06/06 02:06:10;;;;;;;60.20;49.50;;;18.60;99.90;;;;;;5081499;28;20619;-47
2021/06/06 02:08:37;;;;;;;57.03;49.53;;;18.60;99.90;;;;;;5066798;28;20222;-46
2021/06/06 02:11:15;;;;;;;61.10;48.87;;;18.60;99.90;;;;;;5084687;28;20387;-43
2021/06/06 02:13:50;;;;;;;57.73;48.77;;;18.60;99.90;;;;;;5082818;28;20277;-47
2021/06/06 02:16:20;;;;;;;60.50;49.63;;;18.60;99.90;;;;;;5082573;28;20769;-45
2021/06/06 02:18:47;;;;;;;63.27;50.60;;;18.50;99.90;;;;;;5082633;28;20221;-44
2021/06/06 02:21:21;;;;;;;61.77;49.77;;;18.50;99.90;;;;;;5080854;28;20194;-46
2021/06/06 02:23:49;;;;;;;59.87;49.57;;;18.50;99.90;;;;;;5066518;28;22592;-42
2021/06/06 02:26:24;;;;;;;63.53;50.13;;;18.50;99.90;;;;;;5081874;28;20651;-44
2021/06/06 02:29:01;;;;;;;61.83;49.50;;;18.50;99.90;;;;;;5082556;28;20222;-46
2021/06/06 02:31:34;;;;;;;63.63;51.87;;;18.50;99.90;;;;;;5075644;28;20220;-42
2021/06/06 02:34:07;;;;;;;56.60;49.07;;;18.50;99.90;;;;;;5064493;28;20187;-47
2021/06/06 02:36:36;;;;;;;62.60;49.73;;;18.40;99.90;;;;;;5076626;28;20898;-44
2021/06/06 02:39:10;;;;;;;62.13;49.83;;;18.40;99.90;;;;;;5064428;28;20279;-43
2021/06/06 02:41:47;;;;;;;61.17;48.57;;;18.40;99.90;;;;;;5105216;27;20208;-45
2021/06/06 02:44:18;;;;;;;61.17;50.17;;;18.40;99.90;;;;;;5081925;28;20710;-44
2021/06/06 02:46:51;;;;;;;54.77;48.33;;;18.40;99.90;;;;;;5083045;28;20847;-46
2021/06/06 02:49:26;;;;;;;60.77;49.83;;;18.30;99.90;;;;;;5074826;28;20241;-46
2021/06/06 02:51:57;;;;;;;56.83;47.70;;;18.30;99.90;;;;;;5081785;28;20671;-46
2021/06/06 02:54:32;;;;;;;58.17;48.93;;;18.20;99.90;;;;;;5066448;28;20681;-48
2021/06/06 02:57:07;;;;;;;58.77;49.17;;;18.20;99.90;;;;;;5080769;28;20202;-46
2021/06/06 02:59:38;;;;;;;58.83;48.47;;;18.10;99.90;;;;;;5081451;28;20233;-50
2021/06/06 03:02:12;;;;;;;63.23;50.50;;;18.10;99.90;;;;;;5087004;28;20194;-44
2021/06/06 03:04:43;;;;;;;59.30;49.13;;;18.10;99.90;;;;;;5074475;28;20735;-45
2021/06/06 03:07:14;;;;;;;62.23;50.83;;;18.00;99.90;;;;;;5079955;28;20342;-46
2021/06/06 03:09:43;;;;;;;61.60;50.53;;;17.90;99.90;;;;;;5080848;28;20784;-48
2021/06/06 03:12:15;;;;;;;63.23;50.20;;;17.90;99.90;;;;;;5069479;28;20240;-44
2021/06/06 03:14:47;;;;;;;65.00;51.27;;;17.90;99.90;;;;;;5081207;28;20956;-45
2021/06/06 03:17:29;;;;;;;66.23;51.20;;;17.80;99.90;;;;;;5080485;28;20194;-44
2021/06/06 03:20:00;;;;;;;63.57;51.03;;;17.70;99.90;;;;;;5075352;28;20272;-43
2021/06/06 03:22:31;;;;;;;73.87;53.87;;;17.70;99.90;;;;;;5078632;28;20570;-48
2021/06/06 03:25:05;;;;;;;65.83;53.40;;;17.70;99.90;;;;;;5081641;28;20226;-44
2021/06/06 03:27:39;;;;;;;70.63;54.97;;;17.70;99.90;;;;;;5061394;28;20198;-47
2021/06/06 03:30:16;;;;;;;73.73;53.40;;;17.60;99.90;;;;;;5080119;28;20221;-47
2021/06/06 03:32:46;;;;;;;72.13;55.07;;;17.60;99.90;;;;;;5083367;28;20193;-48
2021/06/06 03:35:14;;;;;;;72.50;55.10;;;17.60;99.90;;;;;;5078140;28;20202;-46
2021/06/06 03:37:42;;;;;;;72.93;55.47;;;17.50;99.90;;;;;;5083000;28;20190;-43
2021/06/06 03:40:27;;;;;;;72.10;54.43;;;17.50;99.90;;;;;;5084650;28;20222;-44
2021/06/06 03:43:04;;;;;;;71.77;54.83;;;17.60;99.90;;;;;;5072774;28;20268;-46
2021/06/06 03:45:31;;;;;;;78.50;57.10;;;17.60;99.90;;;;;;5082107;28;20202;-46
2021/06/06 03:47:58;;;;;;;74.87;56.43;;;17.50;99.90;;;;;;5085471;28;20671;-46
2021/06/06 03:50:30;;;;;;;71.73;55.37;;;17.50;99.90;;;;;;5071513;28;20255;-48
2021/06/06 03:52:57;;;;;;;73.03;53.87;;;17.60;99.90;;;;;;5082049;28;20566;-47
2021/06/06 03:55:24;;;;;;;78.77;57.10;;;17.50;99.90;;;;;;5080617;28;20194;-46
2021/06/06 03:57:54;;;;;;;76.33;55.27;;;17.60;99.90;;;;;;5066919;28;20202;-45
2021/06/06 04:00:26;;;;;;;68.57;54.07;;;17.50;99.90;;;;;;5071167;28;20190;-44
2021/06/06 04:03:00;;;;;;;70.60;55.30;;;17.50;99.90;;;;;;5079656;28;20240;-43
2021/06/06 04:05:29;;;;;;;70.03;53.03;;;17.50;99.90;;;;;;5077095;28;20345;-49
2021/06/06 04:07:56;;;;;;;69.17;51.97;;;17.50;99.90;;;;;;5083329;28;20209;-51
2021/06/06 04:10:25;;;;;;;73.37;52.97;;;17.50;99.90;;;;;;5080333;28;20202;-47
2021/06/06 04:12:52;;;;;;;69.13;52.17;;;17.50;99.90;;;;;;5061509;28;20240;-46
2021/06/06 04:15:23;;;;;;;67.37;52.40;;;17.40;99.90;;;;;;5083986;28;20182;-43
2021/06/06 04:17:50;;;;;;;66.27;52.17;;;17.40;99.90;;;;;;5087881;28;20279;-49
2021/06/06 04:20:19;;;;;;;69.20;51.43;;;17.40;99.90;;;;;;5083099;28;20675;-43
2021/06/06 04:22:46;;;;;;;61.77;50.17;;;17.40;99.90;;;;;;5080300;28;20309;-48
2021/06/06 04:25:15;;;;;;;67.50;50.00;;;17.40;99.90;;;;;;5086552;28;20218;-43
2021/06/06 04:27:43;;;;;;;65.03;49.80;;;17.40;99.90;;;;;;5085714;28;20190;-47
2021/06/06 04:30:12;;;;;;;63.10;49.73;;;17.40;99.90;;;;;;5073292;28;20667;-43
2021/06/06 04:32:40;;;;;;;64.40;51.13;;;17.40;99.90;;;;;;5080338;28;20207;-44
2021/06/06 04:35:08;;;;;;;62.70;49.67;;;17.30;99.90;;;;;;5073356;28;20195;-43
2021/06/06 04:37:37;;;;;;;66.33;49.67;;;17.30;99.90;;;;;;5078445;28;20565;-44
2021/06/06 04:40:09;;;;;;;62.33;48.43;;;17.30;99.90;;;;;;5086783;28;20305;-51
2021/06/06 04:42:39;;;;;;;58.70;48.67;;;17.30;99.90;;;;;;5083272;28;20954;-42
2021/06/06 04:45:11;;;;;;;62.93;49.90;;;17.20;99.90;;;;;;5065209;28;20218;-46
2021/06/06 04:47:41;;;;;;;62.67;49.47;;;17.30;99.90;;;;;;5083171;28;20190;-50
2021/06/06 04:50:10;;;;;;;63.77;48.77;;;17.20;99.90;;;;;;5072318;28;20933;-43
2021/06/06 04:52:37;;;;;;;62.63;49.60;;;17.10;99.90;;;;;;5081138;28;20972;-49
2021/06/06 04:55:08;;;;;;;58.67;46.73;;;17.10;99.90;;;;;;5077155;28;20259;-42
2021/06/06 04:57:35;;;;;;;60.23;47.70;;;17.00;99.90;;;;;;5080642;28;20209;-46
2021/06/06 05:00:03;;;;;;;60.33;47.50;;;16.90;99.90;;;;;;5059532;28;20903;-44
2021/06/06 05:02:33;;;;;;;62.27;47.33;;;16.90;99.90;;;;;;5070537;28;20730;-44
2021/06/06 05:05:02;;;;;;;60.70;47.57;;;17.00;99.90;;;;;;5081728;28;20263;-43
2021/06/06 05:07:28;;;;;;;57.60;47.97;;;16.90;99.90;;;;;;5078288;28;20198;-48
2021/06/06 05:09:57;;;;;;;61.60;47.50;;;16.90;99.90;;;;;;5073149;28;20216;-48
2021/06/06 05:12:24;;;;;;;59.13;46.17;;;16.90;99.90;;;;;;5075289;28;20558;-46
2021/06/06 05:14:52;;;;;;;56.87;44.93;;;16.90;99.90;;;;;;5065076;28;20258;-47
2021/06/06 05:17:18;;;;;;;58.30;45.77;;;16.90;99.90;;;;;;5083365;28;20571;-44
2021/06/06 05:19:52;;;;;;;60.67;45.33;;;16.90;99.90;;;;;;5069618;28;20825;-44
2021/06/06 05:22:20;;;;;;;56.63;44.97;;;16.90;99.90;;;;;;5075398;28;20701;-45
2021/06/06 05:24:49;;;;;;;57.17;45.83;;;16.80;99.90;;;;;;5072908;28;20221;-44
2021/06/06 05:27:18;;;;;;;56.23;44.90;;;17.00;99.90;;;;;;5077821;28;20204;-45
2021/06/06 05:29:46;;;;;;;58.40;44.63;;;17.00;99.90;;;;;;5067541;28;20238;-44
2021/06/06 05:32:12;;;;;;;55.93;43.63;;;16.90;99.90;;;;;;5076772;28;20202;-44
2021/06/06 05:34:39;;;;;;;56.87;45.63;;;16.80;99.90;;;;;;5079097;28;20190;-49
2021/06/06 05:37:09;;;;;;;56.87;44.87;;;16.80;99.90;;;;;;5068908;28;20482;-45
2021/06/06 05:39:36;;;;;;;59.70;45.53;;;16.80;99.90;;;;;;5082790;28;20218;-50
2021/06/06 05:42:03;;;;;;;60.47;45.93;;;16.80;99.90;;;;;;5074885;28;20206;-44
2021/06/06 05:44:29;;;;;;;55.07;43.23;;;16.70;99.90;;;;;;5079173;28;20218;-50
2021/06/06 05:46:56;;;;;;;56.13;44.07;;;16.70;99.90;;;;;;5059158;28;20213;-45
2021/06/06 05:49:22;;;;;;;57.03;44.63;;;16.80;99.90;;;;;;5076769;28;20699;-48
2021/06/06 05:51:56;;;;;;;54.80;42.60;;;16.80;99.90;;;;;;5086681;28;20193;-47
2021/06/06 05:54:25;;;;;;;52.30;41.43;;;16.80;99.90;;;;;;5087302;28;20562;-45
2021/06/06 05:56:52;;;;;;;55.70;41.60;;;16.70;99.90;;;;;;5075236;28;20194;-48
2021/06/06 05:59:18;;;;;;;53.47;41.73;;;16.70;99.90;;;;;;5084836;28;20607;-44
2021/06/06 06:01:44;;;;;;;53.57;40.37;;;16.80;99.90;;;;;;5067877;28;20259;-48
2021/06/06 06:04:11;;;;;;;56.53;40.63;;;16.70;99.90;;;;;;5075902;28;20238;-48
2021/06/06 06:06:37;;;;;;;50.27;39.37;;;;;;;;;;5083862;28;20193;-48
2021/06/06 06:09:04;;;;;;;50.27;38.60;;;;;;;;;;5078098;28;21009;-43
2021/06/06 06:11:31;;;;;;;52.23;40.40;;;;;;;;;;5085218;28;20190;-46
2021/06/06 06:13:59;;;;;;;50.93;39.60;;;;;;;;;;5072650;28;20923;-43
2021/06/06 06:16:29;;;;;;;49.60;39.00;;;;;;;;;;5061620;28;20206;-45
2021/06/06 06:18:56;;;;;;;50.40;38.43;;;;;;;;;;5075736;28;20235;-46
2021/06/06 06:21:24;;;;;;;50.87;39.90;;;;;;;;;;5083480;28;20583;-45
2021/06/06 06:23:50;;;;;;;51.57;38.03;;;;;;;;;;5076538;28;20206;-47
2021/06/06 06:26:17;;;;;;;49.20;38.07;;;;;;;;;;5074959;28;20198;-43
2021/06/06 06:28:50;;;;;;;49.13;37.67;;;;;;;;;;5073641;28;20213;-46
2021/06/06 06:31:33;;;;;;;51.60;38.40;;;;;;;;;;5062698;28;20210;-47
2021/06/06 06:34:03;;;;;;;49.37;38.43;;;;;;;;;;5078241;28;20190;-44
2021/06/06 06:36:30;;;;;;;49.47;37.00;;;;;;;;;;5070739;28;20193;-46
2021/06/06 06:38:59;;;;;;;48.80;36.97;;;;;;;;;;5082673;28;20228;-47
2021/06/06 06:41:30;;;;;;;48.57;37.10;;;;;;;;;;5078727;28;20186;-45
2021/06/06 06:44:00;;;;;;;49.77;37.20;;;;;;;;;;5083488;28;20221;-46
2021/06/06 06:46:30;;;;;;;44.43;37.30;;;;;;;;;;5060856;28;20241;-45
2021/06/06 06:49:01;;;;;;;46.70;34.97;;;;;;;;;;5085852;28;20221;-46
2021/06/06 06:51:29;;;;;;;45.33;35.57;;;;;;;;;;5080326;28;20254;-43
2021/06/06 06:53:59;;;;;;;44.93;36.33;;;;;;;;;;5083441;28;20196;-46
2021/06/06 06:56:29;;;;;;;43.43;33.80;;;;;;;;;;5085320;28;20252;-47
2021/06/06 06:58:59;;;;;;;42.47;33.07;;;;;;;;;;5083478;28;20233;-46
2021/06/06 07:01:29;;;;;;;43.53;34.70;;;;;;;;;;5079046;28;20982;-48
2021/06/06 07:03:59;;;;;;;41.47;34.37;;;;;;;;;;5069178;28;20704;-46
2021/06/06 07:06:28;;;;;;;41.27;32.90;;;;;;;;;;5067176;28;20280;-49
2021/06/06 07:08:56;;;;;;;39.63;32.27;;;;;;;;;;5079665;28;20205;-48
2021/06/06 07:11:26;;;;;;;43.77;32.80;;;;;;;;;;5074616;28;20195;-44
2021/06/06 07:13:56;;;;;;;42.37;33.13;;;;;;;;;;5079677;28;20206;-48
2021/06/06 07:16:25;;;;;;;38.80;31.70;;;;;;;;;;5078902;28;20201;-45
2021/06/06 07:18:55;;;;;;;37.83;31.43;;;;;;;;;;5069958;28;20228;-45
2021/06/06 07:21:26;;;;;;;39.20;32.67;;;;;;;;;;5078950;28;20201;-47
2021/06/06 07:23:56;;;;;;;41.03;31.33;;;;;;;;;;5063458;28;20564;-47
2021/06/06 07:26:27;;;;;;;35.70;30.57;;;;;;;;;;5070992;28;20592;-47
2021/06/06 07:28:59;;;;;;;36.93;30.07;;;;;;;;;;5072834;28;20721;-45
2021/06/06 07:31:29;;;;;;;36.93;30.23;;;;;;;;;;5076822;28;20268;-49
2021/06/06 07:33:57;;;;;;;35.17;29.97;;;;;;;;;;5072198;28;20315;-48
2021/06/06 07:36:26;;;;;;;32.90;28.77;;;;;;;;;;5081032;28;20183;-46
2021/06/06 07:38:57;;;;;;;36.27;28.33;;;;;;;;;;5093645;28;20233;-44
2021/06/06 07:41:25;;;;;;;33.60;28.97;;;;;;;;;;5076572;28;20198;-44
2021/06/06 07:43:57;;;;;;;35.13;29.53;;;;;;;;;;5080290;28;20202;-46
2021/06/06 07:46:26;;;;;;;39.37;29.43;;;;;;;;;;5086592;28;20213;-45
2021/06/06 07:48:55;;;;;;;34.67;29.47;;;;;;;;;;5069408;28;20257;-44
2021/06/06 07:51:25;;;;;;;34.53;29.97;;;;;;;;;;5079626;28;20254;-45
2021/06/06 07:53:53;;;;;;;34.90;28.43;;;;;;;;;;5080726;28;20714;-47
2021/06/06 07:56:22;;;;;;;34.07;28.50;;;;;;;;;;5085888;28;20927;-46
2021/06/06 07:58:50;;;;;;;32.53;28.00;;;;;;;;;;5099542;28;20221;-46
2021/06/06 08:01:20;;;;;;;33.47;27.30;;;;;;;;;;5093265;28;20203;-47
2021/06/06 08:03:48;;;;;;;33.83;27.97;;;;;;;;;;5105552;28;20185;-46
2021/06/06 08:06:16;;;;;;;32.80;28.23;;;;;;;;;;5066082;28;20225;-46
2021/06/06 08:08:45;;;;;;;32.73;27.47;;;;;;;;;;5080601;28;20710;-46
2021/06/06 08:11:15;;;;;;;33.73;28.17;;;;;;;;;;5084244;28;20258;-46
2021/06/06 08:13:46;;;;;;;34.40;29.50;;;;;;;;;;5104680;28;20197;-49
2021/06/06 08:16:15;;;;;;;33.23;28.20;;;;;;;;;;5091091;28;20279;-45
2021/06/06 08:18:46;;;;;;;33.70;28.23;;;;;;;;;;5087322;28;20302;-49
2021/06/06 08:21:17;;;;;;;34.03;27.47;;;;;;;;;;5065432;28;20198;-47
2021/06/06 08:23:46;;;;;;;31.70;27.97;;;;;;;;;;5084589;28;20194;-46
2021/06/06 08:26:17;;;;;;;32.23;28.03;;;;;;;;;;5088412;28;20721;-48
2021/06/06 08:28:48;;;;;;;31.33;26.77;;;;;;;;;;5086575;28;20214;-47
2021/06/06 08:31:19;;;;;;;31.90;27.23;;;;;;;;;;5086562;28;20200;-46
2021/06/06 08:33:49;;;;;;;31.83;28.07;;;;;;;;;;5098329;28;20202;-46
2021/06/06 08:36:20;;;;;;;35.23;27.80;;;;;;;;;;5066330;28;20202;-46
2021/06/06 08:38:49;;;;;;;31.03;26.97;;;;;;;;;;5085855;28;20711;-46
2021/06/06 08:41:20;;;;;;;33.63;27.53;;;;;;;;;;5076286;28;20198;-44
2021/06/06 08:43:51;;;;;;;30.30;27.07;;;;;;;;;;5095913;28;20204;-46
2021/06/06 08:46:22;;;;;;;32.73;27.93;;;;;;;;;;5078117;28;20228;-44
2021/06/06 08:48:51;;;;;;;34.17;27.63;;;;;;;;;;5090497;28;20222;-44
2021/06/06 08:51:29;;;;;;;35.27;28.10;;;;;;;;;;5061952;28;20202;-46
2021/06/06 08:54:04;;;;;;;32.27;27.90;;;;;;;;;;5081312;28;20210;-53
2021/06/06 08:56:36;;;;;;;36.40;28.83;;;;;;;;;;5088154;28;20189;-47
2021/06/06 08:59:09;;;;;;;32.20;28.40;;;;;;;;;;5076335;28;20222;-55
2021/06/06 09:01:52;;;;;;;34.87;28.13;;;;;;;;;;5079790;28;20204;-48
2021/06/06 09:04:22;;;;;;;31.90;27.83;;;;;;;;;;5082013;28;20194;-48
2021/06/06 09:06:51;;;;;;;32.93;28.17;;;;;;;;;;5072130;28;20621;-49
2021/06/06 09:09:19;;;;;;;30.87;27.10;;;;;;;;;;5078984;28;20923;-49
2021/06/06 09:11:48;;;;;;;31.43;27.37;;;;;;;;;;5097169;28;20727;-49
2021/06/06 09:14:17;;;;;;;31.67;27.00;;;;;;;;;;5081772;28;20306;-50
2021/06/06 09:16:54;;;;;;;31.47;26.83;;;;;;;;;;5083944;28;20186;-47
2021/06/06 09:19:24;;;;;;;30.23;27.10;;;;;;;;;;5080232;28;20220;-47
2021/06/06 09:21:53;;;;;;;32.53;27.77;;;;;;;;;;5085930;28;20190;-49
2021/06/06 09:24:32;;;;;;;33.43;29.13;;;;;;;;;;5066810;28;20197;-46
2021/06/06 09:27:07;;;;;;;35.33;29.13;;;;;;;;;;5084046;28;20202;-52
2021/06/06 09:29:36;;;;;;;35.33;28.70;;;;;;;;;;5087424;28;20217;-55
2021/06/06 09:32:06;;;;;;;35.93;29.23;;;;;;;;;;5072408;28;20202;-54
2021/06/06 09:34:34;;;;;;;35.83;28.77;;;;;;;;;;5073426;28;20202;-47
2021/06/06 09:37:04;;;;;;;37.87;29.37;;;;;;;;;;5076265;28;20213;-57
2021/06/06 09:39:34;;;;;;;34.33;29.83;;;;;;;;;;5071986;28;20226;-52
2021/06/06 09:42:02;;;;;;;36.80;29.87;;;;;;;;;;5077940;28;20205;-48
2021/06/06 09:44:31;;;;;;;37.60;29.83;;;18.30;99.90;;;;;;5075884;28;20205;-50
2021/06/06 09:47:12;;;;;;;32.77;28.47;;;;;;;;;;5076188;28;20214;-50
2021/06/06 09:49:41;;;;;;;38.70;30.90;;;;;;;;;;5074433;28;20225;-49
2021/06/06 09:52:13;;;;;;;37.37;29.80;;;;;;;;;;5085127;28;20205;-52
2021/06/06 09:54:42;;;;;;;38.93;30.17;;;;;;;;;;5066916;28;20210;-54
2021/06/06 09:57:20;;;;;;;38.50;30.07;;;18.20;99.90;;;;;;5085215;28;20197;-48
2021/06/06 09:59:47;;;;;;;33.93;28.37;;;18.40;99.90;;;;;;5079424;28;20266;-53
2021/06/06 10:02:36;;;;;;;35.57;28.57;;;18.30;99.90;;;;;;5078953;28;20659;-53
2021/06/06 10:05:05;;;;;;;37.27;29.07;;;18.40;99.90;;;;;;5077514;28;20280;-51
2021/06/06 10:07:34;;;;;;;36.37;27.83;;;;;;;;;;5066619;28;20222;-51
2021/06/06 10:10:07;;;;;;;32.33;27.67;;;18.40;99.90;;;;;;5077159;28;20226;-49
2021/06/06 10:12:39;;;;;;;30.37;26.70;;;;;;;;;;5080895;28;20178;-49
2021/06/06 10:15:10;;;;;;;31.87;26.40;;;18.60;99.90;;;;;;5079860;28;20206;-51
2021/06/06 10:17:42;;;;;;;31.63;27.87;;;18.50;99.90;;;;;;5076782;28;20267;-56
2021/06/06 10:20:20;;;;;;;31.33;26.40;;;18.50;99.90;;;;;;5073627;28;20710;-56
2021/06/06 10:22:52;;;;;;;30.10;26.80;;;18.60;99.90;;;;;;5083092;28;20265;-56
2021/06/06 10:25:23;;;;;;;30.07;26.63;;;18.60;99.90;;;;;;5069710;28;20206;-51
2021/06/06 10:27:53;;;;;;;29.27;26.13;;;18.70;99.90;;;;;;5080178;28;20217;-56
2021/06/06 10:30:26;;;;;;;30.87;25.67;;;18.60;99.90;;;;;;5076498;28;20201;-49
2021/06/06 10:33:01;;;;;;;28.60;24.57;;;18.60;99.90;;;;;;5079733;28;20929;-53
2021/06/06 10:35:29;;;;;;;28.43;25.27;;;18.70;99.90;;;;;;5073951;28;20544;-55
2021/06/06 10:37:59;;;;;;;28.63;25.23;;;18.80;99.90;;;;;;5084123;28;20190;-49
2021/06/06 10:40:32;;;;;;;30.63;24.77;;;18.70;99.90;;;;;;5064916;28;20206;-57
2021/06/06 10:43:02;;;;;;;28.70;25.47;;;18.70;99.90;;;;;;5079724;28;20198;-51
2021/06/06 10:45:32;;;;;;;27.73;24.93;;;18.70;99.90;;;;;;5073119;28;20202;-61
2021/06/06 10:48:06;;;;;;;27.03;24.33;;;18.70;99.90;;;;;;5079817;28;20216;-47
2021/06/06 10:50:37;;;;;;;31.23;25.50;;;18.70;99.90;;;;;;5066300;28;20197;-46
2021/06/06 10:53:11;;;;;;;28.13;25.03;;;18.60;99.90;;;;;;5081912;28;20242;-48
2021/06/06 10:55:51;;;;;;;28.93;24.97;;;18.70;99.90;;;;;;5065097;28;20210;-50
2021/06/06 10:58:27;;;;;;;29.20;25.60;;;18.70;99.90;;;;;;5078141;28;20225;-52
2021/06/06 11:00:57;;;;;;;28.77;25.00;;;18.80;99.90;;;;;;5079541;28;20247;-47
2021/06/06 11:03:28;;;;;;;28.63;25.63;;;18.80;99.90;;;;;;5071230;28;20540;-54
2021/06/06 11:05:58;;;;;;;30.63;24.90;;;18.90;99.90;;;;;;5069789;28;20224;-46
2021/06/06 11:08:40;;;;;;;26.90;23.70;;;18.70;99.90;;;;;;5068885;28;20260;-50
2021/06/06 11:11:28;;;;;;;27.23;24.30;;;18.90;99.90;;;;;;5066574;28;20216;-47
2021/06/06 11:13:58;;;;;;;28.40;25.27;;;18.80;99.90;;;;;;5076630;28;20691;-48
2021/06/06 11:16:36;;;;;;;27.57;23.17;;;18.90;99.90;;;;;;5077511;28;20194;-50
2021/06/06 11:19:09;;;;;;;26.67;23.87;;;18.90;99.90;;;;;;5062677;28;20222;-53
2021/06/06 11:21:43;;;;;;;27.03;24.23;;;19.00;99.90;;;;;;5076036;28;20206;-52
2021/06/06 11:24:27;;;;;;;26.47;23.67;;;19.10;99.90;;;;;;5075674;28;20198;-51
2021/06/06 11:27:03;;;;;;;27.37;24.17;;;19.10;99.90;;;;;;5072507;28;20281;-56
2021/06/06 11:29:43;;;;;;;29.53;25.20;;;19.10;99.90;;;;;;5069303;28;20564;-50
2021/06/06 11:32:17;;;;;;;27.47;24.57;;;19.10;99.90;;;;;;5062340;28;20648;-50
2021/06/06 11:34:48;;;;;;;27.27;24.50;;;19.10;99.90;;;;;;5075304;28;20197;-53
2021/06/06 11:37:32;;;;;;;26.27;23.53;;;19.10;99.90;;;;;;5070154;28;20190;-48
2021/06/06 11:40:01;;;;;;;27.70;23.93;;;19.10;99.90;;;;;;5069738;28;20229;-54
2021/06/06 11:42:35;;;;;;;26.03;23.50;;;19.10;99.90;;;;;;5065296;28;20201;-46
2021/06/06 11:45:04;;;;;;;29.00;24.77;;;19.20;99.90;;;;;;5071992;28;20737;-55
2021/06/06 11:47:33;;;;;;;27.47;24.63;;;19.20;99.90;;;;;;5079619;28;20218;-48
2021/06/06 11:50:07;;;;;;;29.40;25.07;;;19.10;99.90;;;;;;5069597;28;20221;-52
2021/06/06 11:52:38;;;;;;;27.40;24.47;;;19.20;99.90;;;;;;5073334;28;20216;-49
2021/06/06 11:55:09;;;;;;;28.27;24.60;;;19.20;99.90;;;;;;5072477;28;20223;-57
2021/06/06 11:57:39;;;;;;;29.27;25.67;;;19.10;99.90;;;;;;5065519;28;20210;-50
2021/06/06 12:00:10;;;;;;;26.27;23.60;;;19.30;99.90;;;;;;5066613;28;20594;-55
2021/06/06 12:02:40;;;;;;;28.50;24.83;;;19.30;99.90;;;;;;5081383;28;20201;-50
2021/06/06 12:05:16;;;;;;;27.33;24.40;;;19.30;99.90;;;;;;5070077;28;20285;-47
2021/06/06 12:07:44;;;;;;;27.50;24.50;;;19.40;99.90;;;;;;5074546;28;20225;-55
2021/06/06 12:10:22;;;;;;;28.00;23.77;;;19.30;99.90;;;;;;5077313;28;20270;-47
2021/06/06 12:12:49;;;;;;;27.33;24.40;;;19.30;99.90;;;;;;5069140;28;20690;-45
2021/06/06 12:15:20;;;;;;;28.17;25.17;;;19.30;99.90;;;;;;5073774;28;20217;-50
2021/06/06 12:17:47;;;;;;;28.73;24.83;;;19.20;99.90;;;;;;5082612;28;20182;-48
2021/06/06 12:20:19;;;;;;;27.27;24.37;;;19.20;99.90;;;;;;5072090;28;20283;-54
2021/06/06 12:22:45;;;;;;;27.97;24.90;;;19.20;99.90;;;;;;5076161;28;20545;-47
2021/06/06 12:25:24;;;;;;;28.03;25.17;;;19.10;99.90;;;;;;5078547;28;20239;-52
2021/06/06 12:27:53;;;;;;;29.53;25.80;;;19.00;99.90;;;;;;5067930;28;20694;-56
2021/06/06 12:30:25;;;;;;;29.77;26.27;;;19.00;99.90;;;;;;5077294;28;20190;-52
2021/06/06 12:32:55;;;;;;;28.43;25.40;;;19.00;99.90;;;;;;5076570;28;20224;-48
2021/06/06 12:35:26;;;;;;;30.20;26.13;;;18.90;99.90;;;;;;5074160;28;20198;-49
2021/06/06 12:37:56;;;;;;;29.90;26.67;;;19.10;99.90;;;;;;5075301;28;20205;-47
2021/06/06 12:40:25;;;;;;;31.17;25.17;;;19.10;99.90;;;;;;5079468;28;20266;-44
2021/06/06 12:42:54;;;;;;;28.83;25.17;;;19.20;99.90;;;;;;5078695;28;20190;-57
2021/06/06 12:45:21;;;;;;;32.00;25.80;;;19.20;99.90;;;;;;5071134;28;20213;-46
2021/06/06 12:47:47;;;;;;;29.27;26.00;;;19.30;99.90;;;;;;5075436;28;20240;-51
2021/06/06 12:50:28;;;;;;;28.80;25.63;;;19.30;99.90;;;;;;5078275;28;20958;-48
2021/06/06 12:52:58;;;;;;;30.43;24.83;;;19.30;99.90;;;;;;5071510;28;20201;-54
2021/06/06 12:55:27;;;;;;;29.23;25.10;;;19.30;99.90;;;;;;5073788;28;20958;-48
2021/06/06 12:57:56;;;;;;;31.63;25.43;;;19.20;99.90;;;;;;5075876;28;20198;-57
2021/06/06 13:00:26;;;;;;;29.57;26.37;;;19.20;99.90;;;;;;5075857;28;20196;-48
2021/06/06 13:02:52;;;;;;;29.50;26.33;;;19.30;99.90;;;;;;5079912;28;20202;-56
2021/06/06 13:05:32;;;;;;;34.43;27.20;;;19.30;99.90;;;;;;5077591;28;20190;-50
2021/06/06 13:08:00;;;;;;;30.37;26.60;;;19.40;99.90;;;;;;5073757;28;20306;-52
2021/06/06 13:10:29;;;;;;;30.17;25.90;;;19.50;99.90;;;;;;5080943;28;21144;-48
2021/06/06 13:12:56;;;;;;;31.10;26.83;;;19.40;99.90;;;;;;5072035;28;20217;-56
2021/06/06 13:15:36;;;;;;;30.93;25.60;;;19.40;99.90;;;;;;5072890;28;20276;-53